createdAt,value
2022-08-17T00:00:43.601Z,57.80
2022-08-17T00:03:08.764Z,57.50
2022-08-17T00:05:42.648Z,57.70
2022-08-17T00:08:13.008Z,57.80
2022-08-17T00:10:41.681Z,57.70
2022-08-17T00:13:12.535Z,57.70
2022-08-17T00:15:40.682Z,57.90
2022-08-17T00:18:58.403Z,57.70
2022-08-17T00:20:59.382Z,57.60
2022-08-17T00:23:29.015Z,57.60
2022-08-17T00:25:57.135Z,57.50
2022-08-17T00:28:25.360Z,57.70
2022-08-17T00:30:54.032Z,57.70
2022-08-17T00:33:27.498Z,57.70
2022-08-17T00:35:58.416Z,58.70
2022-08-17T00:38:28.012Z,57.70
2022-08-17T00:40:59.552Z,57.80
2022-08-17T00:43:32.080Z,57.70
2022-08-17T00:46:02.718Z,57.80
2022-08-17T00:48:31.497Z,57.80
2022-08-17T00:51:06.350Z,58.20
2022-08-17T00:53:36.552Z,58.00
2022-08-17T00:56:08.979Z,57.70
2022-08-17T00:58:37.611Z,58.10
2022-08-17T01:01:07.893Z,57.80
2022-08-17T01:03:36.972Z,58.00
2022-08-17T01:06:09.037Z,58.20
2022-08-17T01:08:39.224Z,58.40
2022-08-17T01:11:09.218Z,58.60
2022-08-17T01:13:43.010Z,59.20
2022-08-17T01:16:17.318Z,59.50
2022-08-17T01:18:47.807Z,59.60
2022-08-17T01:21:25.886Z,59.70
2022-08-17T01:23:55.276Z,60.70
2022-08-17T01:26:23.877Z,60.00
2022-08-17T01:28:55.536Z,60.30
2022-08-17T01:31:25.946Z,60.60
2022-08-17T01:33:54.003Z,60.20
2022-08-17T01:36:21.961Z,60.80
2022-08-17T01:38:49.911Z,60.20
2022-08-17T01:41:22.190Z,60.30
2022-08-17T01:43:55.004Z,60.50
2022-08-17T01:46:28.912Z,61.60
2022-08-17T01:48:57.945Z,62.30
2022-08-17T01:51:27.697Z,61.30
2022-08-17T01:54:02.239Z,61.60
2022-08-17T01:56:33.403Z,61.50
2022-08-17T01:59:01.665Z,61.20
2022-08-17T02:01:32.399Z,61.70
2022-08-17T02:04:01.787Z,61.70
2022-08-17T02:06:44.956Z,61.60
2022-08-17T02:09:14.704Z,61.70
2022-08-17T02:11:46.388Z,62.10
2022-08-17T02:14:14.794Z,62.50
2022-08-17T02:16:43.219Z,62.10
2022-08-17T02:19:14.181Z,61.80
2022-08-17T02:21:43.392Z,61.70
2022-08-17T02:24:16.694Z,62.40
2022-08-17T02:26:46.858Z,62.10
2022-08-17T02:29:15.791Z,62.10
2022-08-17T02:31:43.872Z,61.90
2022-08-17T02:34:11.913Z,62.10
2022-08-17T02:36:39.774Z,62.30
2022-08-17T02:39:10.165Z,61.90
2022-08-17T02:41:39.157Z,62.20
2022-08-17T02:44:09.040Z,62.10
2022-08-17T02:46:36.992Z,62.10
2022-08-17T02:49:05.840Z,62.30
2022-08-17T02:51:33.961Z,62.00
2022-08-17T02:54:39.106Z,62.20
2022-08-17T02:56:49.703Z,62.10
2022-08-17T02:59:18.905Z,62.20
2022-08-17T03:01:46.832Z,62.20
2022-08-17T03:04:15.016Z,62.10
2022-08-17T03:06:42.882Z,62.50
2022-08-17T03:09:10.761Z,62.40
2022-08-17T03:11:38.631Z,62.20
2022-08-17T03:14:06.517Z,62.50
2022-08-17T03:16:35.876Z,62.50
2022-08-17T03:19:04.270Z,62.60
2022-08-17T03:21:32.561Z,62.50
2022-08-17T03:24:00.450Z,62.70
2022-08-17T03:26:29.999Z,63.10
2022-08-17T03:28:58.293Z,62.70
2022-08-17T03:31:26.238Z,62.70
2022-08-17T03:33:56.330Z,62.70
2022-08-17T03:36:24.363Z,62.80
2022-08-17T03:38:52.203Z,62.60
2022-08-17T03:41:23.088Z,62.70
2022-08-17T03:43:50.942Z,62.90
2022-08-17T03:46:36.554Z,62.90
2022-08-17T03:49:34.358Z,62.80
2022-08-17T03:52:19.957Z,63.00
2022-08-17T03:55:05.306Z,62.70
2022-08-17T03:57:35.078Z,62.90
2022-08-17T04:00:04.402Z,62.80
2022-08-17T04:02:34.604Z,62.70
2022-08-17T04:05:04.060Z,62.70
2022-08-17T04:07:32.667Z,62.60
2022-08-17T04:10:00.952Z,62.60
2022-08-17T04:12:31.390Z,62.60
2022-08-17T04:14:59.419Z,62.70
2022-08-17T04:17:29.319Z,62.50
2022-08-17T04:19:58.049Z,63.20
2022-08-17T04:22:33.070Z,62.50
2022-08-17T04:25:04.908Z,62.40
2022-08-17T04:27:32.829Z,62.50
2022-08-17T04:30:00.680Z,62.60
2022-08-17T04:33:05.270Z,62.70
2022-08-17T04:35:20.245Z,62.70
2022-08-17T04:37:49.718Z,62.70
2022-08-17T04:40:36.543Z,62.70
2022-08-17T04:43:07.227Z,62.70
2022-08-17T04:45:39.173Z,63.00
2022-08-17T04:48:07.632Z,62.80
2022-08-17T04:50:36.203Z,63.20
2022-08-17T04:53:05.405Z,63.30
2022-08-17T04:55:33.283Z,63.20
2022-08-17T04:58:01.186Z,63.20
2022-08-17T05:00:29.238Z,63.30
2022-08-17T05:02:57.447Z,63.20
2022-08-17T05:05:27.768Z,63.10
2022-08-17T05:07:57.390Z,63.20
2022-08-17T05:10:30.332Z,63.30
2022-08-17T05:13:00.228Z,63.10
2022-08-17T05:15:29.243Z,63.10
2022-08-17T05:18:01.115Z,63.30
2022-08-17T05:20:29.783Z,63.20
2022-08-17T05:22:59.927Z,63.20
2022-08-17T05:25:32.799Z,63.40
2022-08-17T05:28:04.756Z,63.00
2022-08-17T05:30:34.780Z,63.10
2022-08-17T05:33:08.809Z,63.00
2022-08-17T05:35:40.095Z,63.60
2022-08-17T05:38:09.211Z,63.60
2022-08-17T05:40:39.116Z,63.40
2022-08-17T05:43:09.034Z,63.30
2022-08-17T05:45:55.555Z,63.50
2022-08-17T05:48:39.131Z,63.10
2022-08-17T05:51:31.673Z,63.50
2022-08-17T05:54:16.914Z,63.90
2022-08-17T05:57:05.751Z,63.80
2022-08-17T05:59:52.877Z,63.90
2022-08-17T06:02:26.005Z,63.60
2022-08-17T06:05:06.455Z,63.50
2022-08-17T06:07:42.549Z,63.40
2022-08-17T06:10:15.602Z,63.40
2022-08-17T06:12:57.083Z,63.20
2022-08-17T06:15:32.852Z,63.00
2022-08-17T06:18:05.205Z,63.80
2022-08-17T06:20:43.757Z,63.30
2022-08-17T06:23:15.450Z,63.50
2022-08-17T06:25:49.135Z,63.40
2022-08-17T06:28:26.802Z,63.60
2022-08-17T06:31:01.365Z,63.00
2022-08-17T06:33:34.387Z,63.40
2022-08-17T06:36:11.583Z,63.10
2022-08-17T06:38:54.362Z,63.10
2022-08-17T06:41:31.559Z,63.10
2022-08-17T06:44:42.335Z,63.10
2022-08-17T06:47:07.445Z,63.30
2022-08-17T06:49:43.390Z,63.10
2022-08-17T06:52:46.107Z,63.20
2022-08-17T06:55:18.146Z,63.10
2022-08-17T06:57:50.112Z,62.90
2022-08-17T07:00:23.229Z,62.90
2022-08-17T07:02:56.201Z,63.00
2022-08-17T07:05:27.656Z,62.80
2022-08-17T07:08:04.940Z,62.90
2022-08-17T07:10:37.995Z,62.90
2022-08-17T07:13:29.351Z,62.80
2022-08-17T07:16:13.148Z,62.70
2022-08-17T07:18:41.654Z,63.00
2022-08-17T07:21:26.924Z,62.90
2022-08-17T07:24:07.934Z,63.50
2022-08-17T07:26:35.916Z,63.20
2022-08-17T07:29:05.021Z,63.00
2022-08-17T07:31:34.285Z,63.00
2022-08-17T07:34:10.953Z,62.90
2022-08-17T07:36:38.861Z,63.10
2022-08-17T07:39:06.764Z,63.20
2022-08-17T07:41:57.441Z,63.50
2022-08-17T07:44:28.657Z,63.40
2022-08-17T07:47:15.874Z,63.50
2022-08-17T07:49:46.426Z,64.00
2022-08-17T07:52:51.049Z,63.40
2022-08-17T07:55:30.791Z,63.70
2022-08-17T07:58:05.220Z,63.90
2022-08-17T08:00:33.702Z,64.00
2022-08-17T08:03:13.317Z,63.90
2022-08-17T08:05:51.252Z,64.10
2022-08-17T08:08:26.533Z,64.10
2022-08-17T08:11:09.492Z,63.90
2022-08-17T08:13:42.734Z,64.10
2022-08-17T08:16:25.252Z,63.80
2022-08-17T08:19:03.861Z,64.10
2022-08-17T08:21:44.923Z,64.10
2022-08-17T08:24:30.716Z,64.00
2022-08-17T08:27:11.875Z,64.20
2022-08-17T08:29:49.340Z,64.50
2022-08-17T08:32:21.515Z,64.10
2022-08-17T08:35:03.860Z,64.10
2022-08-17T08:37:42.921Z,64.00
2022-08-17T08:40:24.780Z,64.70
2022-08-17T08:43:02.901Z,64.40
2022-08-17T08:45:53.202Z,64.40
2022-08-17T08:48:53.333Z,63.90
2022-08-17T08:51:37.625Z,64.30
2022-08-17T08:54:15.473Z,64.30
2022-08-17T08:57:11.879Z,65.20
2022-08-17T08:59:44.284Z,64.60
2022-08-17T09:02:21.427Z,64.40
2022-08-17T09:05:18.028Z,64.70
2022-08-17T09:11:32.494Z,64.70
2022-08-17T09:14:21.355Z,64.90
2022-08-17T09:17:03.707Z,64.60
2022-08-17T09:19:43.133Z,64.40
2022-08-17T09:22:23.653Z,64.10
2022-08-17T09:24:58.382Z,64.20
2022-08-17T09:27:34.064Z,64.40
2022-08-17T09:30:07.877Z,64.70
2022-08-17T09:32:40.622Z,64.80
2022-08-17T09:35:15.735Z,64.60
2022-08-17T09:37:51.793Z,64.50
2022-08-17T09:40:25.239Z,64.50
2022-08-17T09:43:00.518Z,64.60
2022-08-17T09:45:33.650Z,64.50
2022-08-17T09:48:06.640Z,64.50
2022-08-17T09:51:04.959Z,64.60
2022-08-17T09:53:31.853Z,64.70
2022-08-17T09:56:15.237Z,64.50
2022-08-17T09:59:02.434Z,64.70
2022-08-17T10:01:39.978Z,64.60
2022-08-17T10:04:37.427Z,65.20
2022-08-17T10:07:12.615Z,64.70
2022-08-17T10:09:56.783Z,64.60
2022-08-17T10:12:34.402Z,64.70
2022-08-17T10:15:15.261Z,64.80
2022-08-17T10:18:03.958Z,64.50
2022-08-17T10:20:37.875Z,64.60
2022-08-17T10:23:31.126Z,64.20
2022-08-17T10:26:16.443Z,64.40
2022-08-17T10:28:50.535Z,64.50
2022-08-17T10:31:34.774Z,64.20
2022-08-17T10:34:26.044Z,64.40
2022-08-17T10:36:59.457Z,64.20
2022-08-17T10:39:52.397Z,64.20
2022-08-17T10:42:30.369Z,64.10
2022-08-17T10:45:06.349Z,64.00
2022-08-17T10:48:04.820Z,64.00
2022-08-17T10:50:53.479Z,64.10
2022-08-17T10:53:55.153Z,64.60
2022-08-17T10:56:26.293Z,64.30
2022-08-17T10:58:55.872Z,64.50
2022-08-17T11:01:58.267Z,64.50
2022-08-17T11:04:42.058Z,64.90
2022-08-17T11:07:18.388Z,65.00
2022-08-17T11:10:06.408Z,64.50
2022-08-17T11:12:44.014Z,64.60
2022-08-17T11:15:25.717Z,65.30
2022-08-17T11:18:26.504Z,64.70
2022-08-17T11:21:32.100Z,64.30
2022-08-17T11:24:20.599Z,64.50
2022-08-17T11:27:04.782Z,64.80
2022-08-17T11:29:38.203Z,64.90
2022-08-17T11:32:13.330Z,64.70
2022-08-17T11:34:44.537Z,64.70
2022-08-17T11:37:36.183Z,64.40
2022-08-17T11:40:43.304Z,64.60
2022-08-17T11:43:48.556Z,64.90
2022-08-17T11:46:25.851Z,64.80
2022-08-17T11:49:21.353Z,64.50
2022-08-17T11:52:10.421Z,64.70
2022-08-17T11:54:45.578Z,64.50
2022-08-17T12:03:53.934Z,64.20
2022-08-17T12:06:33.201Z,64.40
2022-08-17T12:09:08.996Z,64.50
2022-08-17T12:12:12.627Z,64.40
2022-08-17T12:17:52.227Z,64.60
2022-08-17T12:20:30.700Z,64.60
2022-08-17T12:23:06.409Z,64.50
2022-08-17T12:25:40.139Z,64.60
2022-08-17T12:28:22.791Z,64.70
2022-08-17T12:30:53.091Z,64.20
2022-08-17T12:33:28.095Z,64.30
2022-08-17T12:36:03.019Z,64.30
2022-08-17T12:38:34.959Z,64.30
2022-08-17T12:41:23.433Z,64.60
2022-08-17T12:44:01.913Z,64.80
2022-08-17T12:46:35.050Z,65.30
2022-08-17T12:49:23.953Z,65.00
2022-08-17T12:51:56.579Z,65.30
2022-08-17T12:54:33.364Z,65.00
2022-08-17T12:57:10.025Z,65.10
2022-08-17T12:59:42.673Z,65.50
2022-08-17T13:02:39.856Z,65.30
2022-08-17T13:05:17.822Z,65.60
2022-08-17T13:07:47.646Z,65.00
2022-08-17T13:10:24.279Z,64.90
2022-08-17T13:12:54.884Z,65.30
2022-08-17T13:15:29.617Z,64.90
2022-08-17T13:18:08.303Z,65.20
2022-08-17T13:20:37.155Z,65.10
2022-08-17T13:23:12.671Z,65.10
2022-08-17T13:25:41.772Z,65.10
2022-08-17T13:28:32.469Z,64.90
2022-08-17T13:31:24.062Z,65.20
2022-08-17T13:33:53.607Z,65.20
2022-08-17T13:36:33.709Z,64.80
2022-08-17T13:39:08.878Z,65.00
2022-08-17T13:41:39.034Z,65.40
2022-08-17T13:44:31.200Z,65.30
2022-08-17T13:47:00.655Z,65.30
2022-08-17T13:49:41.608Z,65.10
2022-08-17T13:52:33.994Z,65.20
2022-08-17T13:55:06.010Z,65.10
2022-08-17T13:57:35.801Z,64.90
2022-08-17T14:00:17.447Z,64.80
2022-08-17T14:02:45.465Z,65.30
2022-08-17T14:05:16.052Z,65.00
2022-08-17T14:07:44.806Z,65.20
2022-08-17T14:10:15.723Z,65.00
2022-08-17T14:12:45.471Z,65.30
2022-08-17T14:15:15.291Z,64.90
2022-08-17T14:17:43.689Z,65.10
2022-08-17T14:20:15.162Z,65.00
2022-08-17T14:22:46.457Z,65.10
2022-08-17T14:25:16.431Z,65.40
2022-08-17T14:27:52.351Z,64.70
2022-08-17T14:30:24.131Z,64.60
2022-08-17T14:32:53.435Z,64.50
2022-08-17T14:35:24.561Z,64.40
2022-08-17T14:37:53.473Z,64.80
2022-08-17T14:40:24.766Z,64.50
2022-08-17T14:42:54.984Z,64.60
2022-08-17T14:45:30.115Z,64.50
2022-08-17T14:48:01.921Z,64.50
2022-08-17T14:50:31.829Z,64.60
2022-08-17T14:53:01.325Z,64.30
2022-08-17T14:55:31.006Z,64.40
2022-08-17T14:57:59.215Z,64.00
2022-08-17T15:00:28.459Z,63.80
2022-08-17T15:03:00.049Z,64.00
2022-08-17T15:05:33.695Z,64.40
2022-08-17T15:08:02.487Z,64.30
2022-08-17T15:10:31.393Z,64.20
2022-08-17T15:13:00.427Z,64.20
2022-08-17T15:15:29.700Z,64.40
2022-08-17T15:17:58.699Z,64.70
2022-08-17T15:20:29.786Z,64.20
2022-08-17T15:22:59.873Z,64.20
2022-08-17T15:25:30.225Z,64.00
2022-08-17T15:27:58.335Z,63.90
2022-08-17T15:30:27.176Z,64.10
2022-08-17T15:32:57.234Z,64.30
2022-08-17T15:35:29.096Z,64.00
2022-08-17T15:38:11.245Z,64.30
2022-08-17T15:40:42.166Z,63.90
2022-08-17T15:43:12.377Z,63.60
2022-08-17T15:45:41.064Z,63.40
2022-08-17T15:48:10.051Z,63.20
2022-08-17T15:50:38.173Z,63.20
2022-08-17T15:53:07.889Z,63.30
2022-08-17T15:55:38.278Z,62.80
2022-08-17T15:58:07.076Z,63.00
2022-08-17T16:00:53.052Z,63.10
2022-08-17T16:04:01.298Z,63.10
2022-08-17T16:06:13.517Z,63.00
2022-08-17T16:08:46.051Z,63.30
2022-08-17T16:11:16.156Z,63.50
2022-08-17T16:13:47.374Z,63.10
2022-08-17T16:16:23.581Z,63.00
2022-08-17T16:18:54.654Z,63.50
2022-08-17T16:21:26.979Z,62.80
2022-08-17T16:24:00.419Z,63.10
2022-08-17T16:26:29.169Z,63.00
2022-08-17T16:28:58.768Z,62.90
2022-08-17T16:31:27.356Z,62.90
2022-08-17T16:34:16.381Z,62.80
2022-08-17T16:36:50.554Z,62.80
2022-08-17T16:39:30.728Z,62.80
2022-08-17T16:41:59.035Z,62.70
2022-08-17T16:44:28.909Z,62.70
2022-08-17T16:46:57.555Z,62.60
2022-08-17T16:49:37.163Z,63.00
2022-08-17T16:52:09.850Z,62.90
2022-08-17T16:54:42.041Z,62.70
2022-08-17T16:57:11.151Z,62.60
2022-08-17T16:59:43.583Z,62.80
2022-08-17T17:02:15.681Z,62.90
2022-08-17T17:04:50.554Z,63.00
2022-08-17T17:07:34.733Z,62.70
2022-08-17T17:10:08.701Z,63.00
2022-08-17T17:13:01.349Z,62.80
2022-08-17T17:15:32.309Z,62.80
2022-08-17T17:18:07.123Z,62.90
2022-08-17T17:20:40.377Z,63.10
2022-08-17T17:23:12.591Z,63.20
2022-08-17T17:25:48.938Z,63.00
2022-08-17T17:28:25.032Z,63.30
2022-08-17T17:30:59.032Z,63.40
2022-08-17T17:33:38.542Z,63.20
2022-08-17T17:36:09.716Z,63.30
2022-08-17T17:38:43.639Z,63.30
2022-08-17T17:41:25.307Z,63.40
2022-08-17T17:44:02.927Z,63.30
2022-08-17T17:46:33.856Z,63.60
2022-08-17T17:49:01.881Z,63.60
2022-08-17T17:52:09.111Z,63.50
2022-08-17T17:54:40.125Z,63.50
2022-08-17T17:57:24.600Z,63.70
2022-08-17T18:00:01.793Z,63.60
2022-08-17T18:02:51.990Z,63.60
2022-08-17T18:05:34.405Z,63.90
2022-08-17T18:08:12.581Z,63.80
2022-08-17T18:10:50.733Z,63.60
2022-08-17T18:13:27.979Z,63.40
2022-08-17T18:16:00.692Z,63.50
2022-08-17T18:18:42.984Z,63.20
2022-08-17T18:21:16.727Z,63.20
2022-08-17T18:23:52.039Z,63.40
2022-08-17T18:26:44.823Z,63.30
2022-08-17T18:29:31.324Z,63.30
2022-08-17T18:32:24.343Z,63.30
2022-08-17T18:34:55.212Z,63.40
2022-08-17T18:37:44.931Z,63.00
2022-08-17T18:40:36.264Z,62.90
2022-08-17T18:43:12.749Z,63.10
2022-08-17T18:45:48.322Z,63.00
2022-08-17T18:48:29.086Z,63.00
2022-08-17T18:51:00.132Z,63.00
2022-08-17T18:53:33.563Z,63.00
2022-08-17T18:56:33.558Z,62.90
2022-08-17T18:59:18.685Z,63.30
2022-08-17T19:02:34.613Z,63.10
2022-08-17T19:05:13.541Z,63.20
2022-08-17T19:07:44.281Z,62.90
2022-08-17T19:10:24.048Z,63.00
2022-08-17T19:13:00.682Z,63.00
2022-08-17T19:15:34.225Z,63.70
2022-08-17T19:18:06.827Z,63.00
2022-08-17T19:20:39.080Z,63.30
2022-08-17T19:23:19.692Z,63.00
2022-08-17T19:25:50.850Z,63.70
2022-08-17T19:28:24.438Z,63.20
2022-08-17T19:31:02.086Z,63.00
2022-08-17T19:33:32.898Z,63.00
2022-08-17T19:36:07.756Z,63.10
2022-08-17T19:38:43.411Z,62.90
2022-08-17T19:41:21.631Z,62.90
2022-08-17T19:44:10.609Z,63.00
2022-08-17T19:46:48.614Z,62.90
2022-08-17T19:49:33.052Z,62.80
2022-08-17T19:52:41.696Z,63.00
2022-08-17T19:55:20.810Z,63.00
2022-08-17T19:57:57.097Z,62.80
2022-08-17T20:00:25.596Z,62.80
2022-08-17T20:02:58.580Z,62.80
2022-08-17T20:05:30.655Z,62.70
2022-08-17T20:08:05.846Z,62.80
2022-08-17T20:10:45.145Z,62.80
2022-08-17T20:13:19.607Z,63.00
2022-08-17T20:16:02.515Z,62.70
2022-08-17T20:18:37.758Z,62.70
2022-08-17T20:21:19.922Z,62.60
2022-08-17T20:23:54.256Z,62.90
2022-08-17T20:26:27.302Z,63.00
2022-08-17T20:29:36.991Z,62.90
2022-08-17T20:32:26.155Z,62.70
2022-08-17T20:35:10.758Z,63.10
2022-08-17T20:37:44.634Z,63.00
2022-08-17T20:40:20.599Z,62.90
2022-08-17T20:42:48.587Z,62.90
2022-08-17T20:46:03.376Z,63.00
2022-08-17T20:48:38.908Z,62.90
2022-08-17T20:51:23.474Z,63.00
2022-08-17T20:54:05.478Z,63.00
2022-08-17T20:56:49.107Z,63.00
2022-08-17T20:59:52.180Z,63.20
2022-08-17T21:02:22.547Z,63.00
2022-08-17T21:05:02.262Z,63.00
2022-08-17T21:07:53.669Z,63.00
2022-08-17T21:10:37.071Z,63.10
2022-08-17T21:13:37.715Z,63.20
2022-08-17T21:16:24.160Z,63.20
2022-08-17T21:18:59.249Z,62.90
2022-08-17T21:21:38.595Z,63.20
2022-08-17T21:24:19.444Z,63.00
2022-08-17T21:27:00.121Z,63.10
2022-08-17T21:29:33.787Z,62.90
2022-08-17T21:32:24.694Z,62.60
2022-08-17T21:35:28.883Z,62.60
2022-08-17T21:38:05.938Z,62.50
2022-08-17T21:40:35.353Z,62.60
2022-08-17T21:43:18.149Z,62.50
2022-08-17T21:45:57.617Z,62.40
2022-08-17T21:48:27.406Z,62.40
2022-08-17T21:51:02.853Z,62.60
2022-08-17T21:53:37.730Z,62.70
2022-08-17T21:56:06.969Z,62.90
2022-08-17T21:58:40.582Z,62.90
2022-08-17T22:01:19.228Z,62.70
2022-08-17T22:03:56.672Z,62.60
2022-08-17T22:06:26.992Z,62.60
2022-08-17T22:09:17.241Z,62.50
2022-08-17T22:11:58.090Z,62.40
2022-08-17T22:14:51.682Z,62.70
2022-08-17T22:17:22.746Z,62.60
2022-08-17T22:19:53.287Z,62.50
2022-08-17T22:22:29.666Z,62.90
2022-08-17T22:25:00.052Z,62.60
2022-08-17T22:27:51.235Z,62.80
2022-08-17T22:30:34.280Z,62.50
2022-08-17T22:33:22.896Z,62.40
2022-08-17T22:36:22.009Z,62.40
2022-08-17T22:38:51.837Z,62.80
2022-08-17T22:41:37.130Z,62.90
2022-08-17T22:44:15.306Z,62.90
2022-08-17T22:46:55.224Z,62.90
2022-08-17T22:49:27.218Z,63.00
2022-08-17T22:52:23.427Z,62.90
2022-08-17T22:55:25.468Z,62.80
2022-08-17T22:58:11.377Z,62.80
2022-08-17T23:00:41.689Z,62.70
2022-08-17T23:03:18.470Z,62.90
2022-08-17T23:05:51.183Z,62.90
2022-08-17T23:08:21.282Z,62.80
2022-08-17T23:10:52.645Z,62.80
2022-08-17T23:13:21.235Z,62.80
2022-08-17T23:15:50.517Z,62.80
2022-08-17T23:18:18.524Z,62.90
2022-08-17T23:20:53.381Z,62.90
2022-08-17T23:23:23.915Z,63.00
2022-08-17T23:25:52.066Z,63.20
2022-08-17T23:28:20.011Z,63.00
2022-08-17T23:30:48.250Z,63.30
2022-08-17T23:33:20.158Z,63.30
2022-08-17T23:35:48.459Z,63.40
2022-08-17T23:38:16.323Z,63.20
2022-08-17T23:40:47.190Z,63.10
2022-08-17T23:43:25.737Z,63.30
2022-08-17T23:46:01.070Z,63.30
2022-08-17T23:48:35.691Z,63.10
2022-08-17T23:51:13.060Z,63.20
2022-08-17T23:53:46.105Z,63.20
2022-08-17T23:56:16.010Z,63.20
2022-08-17T23:58:44.733Z,63.20
